createdAt,value
2018-11-07T00:01:08.719Z,95403.00
2018-11-07T00:03:39.592Z,95394.00
2018-11-07T00:06:10.390Z,95396.00
2018-11-07T00:08:41.461Z,95398.00
2018-11-07T00:11:12.774Z,95397.00
2018-11-07T00:13:43.664Z,95393.00
2018-11-07T00:16:14.813Z,95392.00
2018-11-07T00:18:45.966Z,95398.00
2018-11-07T00:21:16.898Z,95393.00
2018-11-07T00:23:48.162Z,95397.00
2018-11-07T00:26:19.362Z,95402.00
2018-11-07T00:28:50.210Z,95399.00
2018-11-07T00:31:21.130Z,95401.00
2018-11-07T00:33:52.091Z,95393.00
2018-11-07T00:36:22.973Z,95396.00
2018-11-07T00:38:53.777Z,95395.00
2018-11-07T00:41:24.658Z,95392.00
2018-11-07T00:43:55.509Z,95395.00
2018-11-07T00:46:26.242Z,95392.00
2018-11-07T00:48:57.091Z,95395.00
2018-11-07T00:51:28.515Z,95394.00
2018-11-07T00:53:59.441Z,95395.00
2018-11-07T00:56:30.113Z,95392.00
2018-11-07T00:59:00.923Z,95396.00
2018-11-07T01:01:31.981Z,95390.00
2018-11-07T01:04:03.081Z,95390.00
2018-11-07T01:06:34.457Z,95391.00
2018-11-07T01:09:07.095Z,95386.00
2018-11-07T01:11:37.986Z,95387.00
2018-11-07T01:14:09.202Z,95382.00
2018-11-07T01:16:40.204Z,95383.00
2018-11-07T01:19:11.129Z,95375.00
2018-11-07T01:21:42.000Z,95376.00
2018-11-07T01:24:12.739Z,95376.00
2018-11-07T01:26:43.496Z,95367.00
2018-11-07T01:29:14.306Z,95372.00
2018-11-07T01:31:45.019Z,95369.00
2018-11-07T01:34:15.884Z,95368.00
2018-11-07T01:36:46.643Z,95362.00
2018-11-07T01:39:17.375Z,95360.00
2018-11-07T01:41:48.160Z,95363.00
2018-11-07T01:44:18.769Z,95363.00
2018-11-07T01:46:49.473Z,95369.00
2018-11-07T01:49:20.268Z,95370.00
2018-11-07T01:51:51.050Z,95371.00
2018-11-07T01:54:21.924Z,95367.00
2018-11-07T01:56:52.723Z,95364.00
2018-11-07T01:59:23.535Z,95368.00
2018-11-07T02:01:54.460Z,95369.00
2018-11-07T02:04:25.189Z,95366.00
2018-11-07T02:06:55.928Z,95369.00
2018-11-07T02:09:26.690Z,95369.00
2018-11-07T02:11:57.640Z,95368.00
2018-11-07T02:14:29.305Z,95369.00
2018-11-07T02:17:00.024Z,95370.00
2018-11-07T02:19:30.854Z,95363.00
2018-11-07T02:22:01.604Z,95361.00
2018-11-07T02:24:32.339Z,95364.00
2018-11-07T02:27:03.224Z,95362.00
2018-11-07T02:29:34.139Z,95363.00
2018-11-07T02:32:05.117Z,95366.00
2018-11-07T02:34:35.927Z,95365.00
2018-11-07T02:37:06.982Z,95359.00
2018-11-07T02:39:37.705Z,95365.00
2018-11-07T02:42:08.503Z,95367.00
2018-11-07T02:44:39.397Z,95369.00
2018-11-07T02:47:10.586Z,95361.00
2018-11-07T02:49:41.274Z,95366.00
2018-11-07T02:52:12.033Z,95372.00
2018-11-07T02:54:42.878Z,95373.00
2018-11-07T02:57:13.551Z,95375.00
2018-11-07T02:59:44.406Z,95376.00
2018-11-07T03:02:15.194Z,95371.00
2018-11-07T03:04:46.146Z,95375.00
2018-11-07T03:07:17.113Z,95373.00
2018-11-07T03:09:47.892Z,95373.00
2018-11-07T03:12:19.001Z,95375.00
2018-11-07T03:14:49.798Z,95376.00
2018-11-07T03:17:20.683Z,95372.00
2018-11-07T03:19:51.522Z,95379.00
2018-11-07T03:22:22.233Z,95374.00
2018-11-07T03:24:53.084Z,95374.00
2018-11-07T03:27:24.389Z,95369.00
2018-11-07T03:29:55.309Z,95368.00
2018-11-07T03:32:26.019Z,95367.00
2018-11-07T03:34:57.222Z,95371.00
2018-11-07T03:37:28.025Z,95373.00
2018-11-07T03:39:59.090Z,95377.00
2018-11-07T03:42:29.965Z,95383.00
2018-11-07T03:45:00.714Z,95380.00
2018-11-07T03:47:31.611Z,95386.00
2018-11-07T03:50:02.478Z,95390.00
2018-11-07T03:52:33.316Z,95383.00
2018-11-07T03:55:04.319Z,95387.00
2018-11-07T03:57:35.182Z,95392.00
2018-11-07T04:00:08.320Z,95390.00
2018-11-07T04:02:39.521Z,95390.00
2018-11-07T04:05:11.802Z,95389.00
2018-11-07T04:07:43.625Z,95389.00
2018-11-07T04:10:14.335Z,95396.00
2018-11-07T04:12:45.484Z,95395.00
2018-11-07T04:15:16.346Z,95391.00
2018-11-07T04:17:47.263Z,95388.00
2018-11-07T04:20:18.154Z,95390.00
2018-11-07T04:22:49.046Z,95387.00
2018-11-07T04:25:20.341Z,95393.00
2018-11-07T04:27:51.337Z,95391.00
2018-11-07T04:30:22.187Z,95395.00
2018-11-07T04:32:53.022Z,95390.00
2018-11-07T04:35:23.843Z,95394.00
2018-11-07T04:37:54.725Z,95399.00
2018-11-07T04:40:26.052Z,95399.00
2018-11-07T04:42:57.300Z,95405.00
2018-11-07T04:45:28.266Z,95402.00
2018-11-07T04:47:59.121Z,95402.00
2018-11-07T04:50:30.184Z,95404.00
2018-11-07T04:53:01.057Z,95406.00
2018-11-07T04:55:32.398Z,95412.00
2018-11-07T04:58:03.267Z,95415.00
2018-11-07T05:00:34.380Z,95415.00
2018-11-07T05:03:05.399Z,95416.00
2018-11-07T05:05:36.359Z,95420.00
2018-11-07T05:08:07.457Z,95420.00
2018-11-07T05:10:38.412Z,95427.00
2018-11-07T05:13:09.374Z,95424.00
2018-11-07T05:15:40.319Z,95428.00
2018-11-07T05:18:11.340Z,95425.00
2018-11-07T05:20:42.278Z,95430.00
2018-11-07T05:23:13.303Z,95434.00
2018-11-07T05:25:44.180Z,95436.00
2018-11-07T05:28:15.212Z,95435.00
2018-11-07T05:30:46.167Z,95443.00
2018-11-07T05:33:17.125Z,95438.00
2018-11-07T05:35:48.016Z,95447.00
2018-11-07T05:38:18.903Z,95445.00
2018-11-07T05:40:49.868Z,95447.00
2018-11-07T05:43:20.851Z,95443.00
2018-11-07T05:45:52.237Z,95446.00
2018-11-07T05:48:23.099Z,95448.00
2018-11-07T05:50:54.188Z,95450.00
2018-11-07T05:53:25.237Z,95446.00
2018-11-07T05:55:56.240Z,95444.00
2018-11-07T05:58:27.255Z,95451.00
2018-11-07T06:00:58.310Z,95448.00
2018-11-07T06:06:00.496Z,95454.00
2018-11-07T06:08:32.556Z,95455.00
2018-11-07T06:11:04.584Z,95450.00
2018-11-07T06:13:36.458Z,95453.00
2018-11-07T06:16:08.463Z,95451.00
2018-11-07T06:18:40.623Z,95453.00
2018-11-07T06:21:12.624Z,95453.00
2018-11-07T06:23:44.697Z,95453.00
2018-11-07T06:26:16.933Z,95453.00
2018-11-07T06:28:49.623Z,95461.00
2018-11-07T06:31:21.571Z,95457.00
2018-11-07T06:33:54.542Z,95460.00
2018-11-07T06:36:26.523Z,95451.00
2018-11-07T06:38:58.873Z,95451.00
2018-11-07T06:41:30.762Z,95452.00
2018-11-07T06:44:03.497Z,95448.00
2018-11-07T06:46:35.455Z,95452.00
2018-11-07T06:49:07.716Z,95452.00
2018-11-07T06:51:39.528Z,95451.00
2018-11-07T06:54:11.507Z,95445.00
2018-11-07T06:56:43.747Z,95444.00
2018-11-07T06:59:15.672Z,95443.00
2018-11-07T07:01:48.698Z,95445.00
2018-11-07T07:04:20.852Z,95446.00
2018-11-07T07:06:52.994Z,95446.00
2018-11-07T07:09:24.799Z,95442.00
2018-11-07T07:11:57.918Z,95438.00
2018-11-07T07:14:30.607Z,95440.00
2018-11-07T07:17:02.772Z,95437.00
2018-11-07T07:19:35.201Z,95447.00
2018-11-07T07:22:07.569Z,95442.00
2018-11-07T07:24:39.795Z,95439.00
2018-11-07T07:27:11.793Z,95437.00
2018-11-07T07:29:44.000Z,95435.00
2018-11-07T07:32:16.201Z,95433.00
2018-11-07T07:34:48.195Z,95432.00
2018-11-07T07:37:20.297Z,95426.00
2018-11-07T07:39:52.454Z,95426.00
2018-11-07T07:42:24.668Z,95427.00
2018-11-07T07:44:56.545Z,95428.00
2018-11-07T07:47:28.724Z,95431.00
2018-11-07T07:50:00.982Z,95432.00
2018-11-07T07:52:33.555Z,95423.00
2018-11-07T07:55:06.035Z,95426.00
2018-11-07T07:57:38.960Z,95425.00
2018-11-07T08:00:17.111Z,95422.00
2018-11-07T08:02:52.339Z,95421.00
2018-11-07T08:05:24.356Z,95423.00
2018-11-07T08:07:56.412Z,95418.00
2018-11-07T08:10:28.442Z,95428.00
2018-11-07T08:13:00.842Z,95427.00
2018-11-07T08:15:32.764Z,95425.00
2018-11-07T08:18:04.901Z,95424.00
2018-11-07T08:20:36.896Z,95425.00
2018-11-07T08:23:09.159Z,95424.00
2018-11-07T08:25:41.162Z,95422.00
2018-11-07T08:28:13.163Z,95421.00
2018-11-07T08:30:46.444Z,95421.00
2018-11-07T08:33:18.933Z,95417.00
2018-11-07T08:35:51.035Z,95414.00
2018-11-07T08:38:23.107Z,95412.00
2018-11-07T08:40:55.025Z,95414.00
2018-11-07T08:43:27.277Z,95411.00
2018-11-07T08:45:59.142Z,95407.00
2018-11-07T08:48:31.063Z,95411.00
2018-11-07T08:51:03.158Z,95408.00
2018-11-07T08:53:35.307Z,95405.00
2018-11-07T08:56:07.272Z,95404.00
2018-11-07T08:58:39.903Z,95405.00
2018-11-07T09:01:12.262Z,95404.00
2018-11-07T09:03:44.634Z,95402.00
2018-11-07T09:06:16.683Z,95399.00
2018-11-07T09:08:49.284Z,95391.00
2018-11-07T09:11:22.168Z,95392.00
2018-11-07T09:13:54.254Z,95392.00
2018-11-07T09:16:26.494Z,95389.00
2018-11-07T09:18:59.545Z,95379.00
2018-11-07T09:21:31.694Z,95371.00
2018-11-07T09:24:03.760Z,95364.00
2018-11-07T09:26:35.725Z,95363.00
2018-11-07T09:29:07.983Z,95350.00
2018-11-07T09:31:40.062Z,95350.00
2018-11-07T09:34:12.045Z,95345.00
2018-11-07T09:36:45.021Z,95341.00
2018-11-07T09:39:17.329Z,95336.00
2018-11-07T09:41:49.592Z,95336.00
2018-11-07T09:44:21.722Z,95334.00
2018-11-07T09:46:53.903Z,95325.00
2018-11-07T09:49:27.310Z,95331.00
2018-11-07T09:51:59.561Z,95324.00
2018-11-07T09:54:32.548Z,95319.00
2018-11-07T09:57:04.568Z,95324.00
2018-11-07T09:59:37.836Z,95323.00
2018-11-07T10:02:09.929Z,95320.00
2018-11-07T10:04:42.037Z,95317.00
2018-11-07T10:07:13.837Z,95314.00
2018-11-07T10:09:46.170Z,95312.00
2018-11-07T10:12:18.266Z,95308.00
2018-11-07T10:14:50.451Z,95302.00
2018-11-07T10:17:22.201Z,95300.00
2018-11-07T10:19:54.526Z,95296.00
2018-11-07T10:22:27.980Z,95296.00
2018-11-07T10:25:00.572Z,95289.00
2018-11-07T10:27:33.025Z,95282.00
2018-11-07T10:30:06.519Z,95285.00
2018-11-07T10:32:38.061Z,95275.00
2018-11-07T10:35:11.049Z,95269.00
2018-11-07T10:37:43.403Z,95266.00
2018-11-07T10:40:18.351Z,95266.00
2018-11-07T10:42:50.388Z,95258.00
2018-11-07T10:45:23.217Z,95258.00
2018-11-07T10:47:55.680Z,95263.00
2018-11-07T10:50:28.017Z,95256.00
2018-11-07T10:52:59.954Z,95254.00
2018-11-07T10:55:32.282Z,95251.00
2018-11-07T10:58:05.230Z,95246.00
2018-11-07T11:00:41.908Z,95242.00
2018-11-07T11:03:19.104Z,95248.00
2018-11-07T11:05:52.098Z,95247.00
2018-11-07T11:08:24.182Z,95242.00
2018-11-07T11:10:56.114Z,95240.00
2018-11-07T11:13:28.139Z,95242.00
2018-11-07T11:16:00.157Z,95226.00
2018-11-07T11:18:32.981Z,95223.00
2018-11-07T11:21:05.497Z,95220.00
2018-11-07T11:23:37.640Z,95217.00
2018-11-07T11:26:09.747Z,95216.00
2018-11-07T11:28:41.910Z,95221.00
2018-11-07T11:31:13.921Z,95208.00
2018-11-07T11:33:46.218Z,95214.00
2018-11-07T11:36:18.481Z,95209.00
2018-11-07T11:38:50.662Z,95216.00
2018-11-07T11:41:22.761Z,95201.00
2018-11-07T11:43:54.993Z,95198.00
2018-11-07T11:46:27.051Z,95200.00
2018-11-07T11:48:59.358Z,95197.00
2018-11-07T11:51:31.310Z,95190.00
2018-11-07T11:54:03.389Z,95186.00
2018-11-07T11:56:35.239Z,95189.00
2018-11-07T11:59:07.473Z,95189.00
2018-11-07T12:01:39.272Z,95180.00
2018-11-07T12:04:11.056Z,95181.00
2018-11-07T12:06:42.998Z,95177.00
2018-11-07T12:09:15.055Z,95178.00
2018-11-07T12:11:47.129Z,95178.00
2018-11-07T12:14:19.351Z,95177.00
2018-11-07T12:16:51.505Z,95176.00
2018-11-07T12:19:23.381Z,95174.00
2018-11-07T12:21:55.383Z,95169.00
2018-11-07T12:24:27.473Z,95163.00
2018-11-07T12:27:03.291Z,95166.00
2018-11-07T12:29:35.573Z,95167.00
2018-11-07T12:32:08.039Z,95165.00
2018-11-07T12:34:39.871Z,95161.00
2018-11-07T12:37:12.162Z,95163.00
2018-11-07T12:39:44.224Z,95163.00
2018-11-07T12:42:16.159Z,95162.00
2018-11-07T12:44:48.401Z,95157.00
2018-11-07T12:47:20.792Z,95155.00
2018-11-07T12:49:53.144Z,95158.00
2018-11-07T12:52:25.570Z,95153.00
2018-11-07T12:54:57.588Z,95155.00
2018-11-07T12:57:29.750Z,95156.00
2018-11-07T13:00:02.391Z,95152.00
2018-11-07T13:02:34.688Z,95149.00
2018-11-07T13:05:07.725Z,95154.00
2018-11-07T13:07:40.341Z,95148.00
2018-11-07T13:10:16.574Z,95146.00
2018-11-07T13:12:49.447Z,95147.00
2018-11-07T13:15:21.904Z,95148.00
2018-11-07T13:17:54.465Z,95150.00
2018-11-07T13:20:27.107Z,95144.00
2018-11-07T13:22:59.328Z,95145.00
2018-11-07T13:25:31.776Z,95145.00
2018-11-07T13:28:03.973Z,95147.00
2018-11-07T13:30:36.589Z,95141.00
2018-11-07T13:33:08.954Z,95153.00
2018-11-07T13:35:41.115Z,95145.00
2018-11-07T13:38:13.748Z,95146.00
2018-11-07T13:40:45.897Z,95144.00
2018-11-07T13:43:17.901Z,95143.00
2018-11-07T13:45:50.254Z,95142.00
2018-11-07T13:48:23.125Z,95145.00
2018-11-07T13:50:55.059Z,95141.00
2018-11-07T13:53:27.221Z,95146.00
2018-11-07T13:55:59.273Z,95142.00
2018-11-07T13:58:31.375Z,95141.00
2018-11-07T14:01:03.821Z,95145.00
2018-11-07T14:03:36.647Z,95147.00
2018-11-07T14:06:09.057Z,95145.00
2018-11-07T14:08:41.576Z,95152.00
2018-11-07T14:11:13.745Z,95152.00
2018-11-07T14:13:45.871Z,95154.00
2018-11-07T14:16:17.995Z,95148.00
2018-11-07T14:18:50.319Z,95152.00
2018-11-07T14:21:22.681Z,95150.00
2018-11-07T14:23:54.867Z,95152.00
2018-11-07T14:26:27.217Z,95151.00
2018-11-07T14:29:00.388Z,95148.00
2018-11-07T14:31:32.499Z,95146.00
2018-11-07T14:34:04.993Z,95147.00
2018-11-07T14:36:36.824Z,95152.00
2018-11-07T14:39:10.258Z,95152.00
2018-11-07T14:41:42.890Z,95155.00
2018-11-07T14:44:15.015Z,95146.00
2018-11-07T14:46:48.305Z,95145.00
2018-11-07T14:49:20.423Z,95147.00
2018-11-07T14:51:52.749Z,95149.00
2018-11-07T14:54:24.890Z,95153.00
2018-11-07T14:56:57.253Z,95158.00
2018-11-07T14:59:29.020Z,95158.00
2018-11-07T15:02:01.008Z,95164.00
2018-11-07T15:04:33.452Z,95163.00
2018-11-07T15:07:05.405Z,95164.00
2018-11-07T15:09:37.288Z,95166.00
2018-11-07T15:12:10.302Z,95165.00
2018-11-07T15:14:42.443Z,95164.00
2018-11-07T15:17:14.268Z,95163.00
2018-11-07T15:19:47.146Z,95169.00
2018-11-07T15:22:19.632Z,95169.00
2018-11-07T15:24:51.786Z,95172.00
2018-11-07T15:27:23.825Z,95174.00
2018-11-07T15:29:56.524Z,95171.00
2018-11-07T15:32:29.448Z,95171.00
2018-11-07T15:35:01.534Z,95172.00
2018-11-07T15:37:33.440Z,95171.00
2018-11-07T15:40:06.015Z,95172.00
2018-11-07T15:42:38.504Z,95177.00
2018-11-07T15:45:13.255Z,95180.00
2018-11-07T15:47:45.349Z,95184.00
2018-11-07T15:50:22.932Z,95185.00
2018-11-07T15:52:55.408Z,95192.00
2018-11-07T15:55:27.400Z,95194.00
2018-11-07T15:57:59.778Z,95195.00
2018-11-07T16:00:32.297Z,95200.00
2018-11-07T16:03:04.748Z,95207.00
2018-11-07T16:05:36.672Z,95207.00
2018-11-07T16:08:09.815Z,95211.00
2018-11-07T16:10:41.852Z,95213.00
2018-11-07T16:13:14.045Z,95219.00
2018-11-07T16:15:46.353Z,95224.00
2018-11-07T16:18:18.231Z,95221.00
2018-11-07T16:20:51.400Z,95219.00
2018-11-07T16:23:23.624Z,95213.00
2018-11-07T16:25:56.052Z,95218.00
2018-11-07T16:28:28.048Z,95223.00
2018-11-07T16:30:59.925Z,95225.00
2018-11-07T16:33:32.506Z,95226.00
2018-11-07T16:36:04.661Z,95222.00
2018-11-07T16:38:36.956Z,95230.00
2018-11-07T16:41:09.947Z,95239.00
2018-11-07T16:43:41.927Z,95244.00
2018-11-07T16:46:14.927Z,95243.00
2018-11-07T16:48:47.146Z,95245.00
2018-11-07T16:51:19.536Z,95244.00
2018-11-07T16:53:51.763Z,95245.00
2018-11-07T16:56:23.798Z,95246.00
2018-11-07T16:58:56.061Z,95251.00
2018-11-07T17:01:28.175Z,95249.00
2018-11-07T17:04:00.855Z,95251.00
2018-11-07T17:06:33.267Z,95250.00
2018-11-07T17:09:06.832Z,95254.00
2018-11-07T17:11:39.205Z,95249.00
2018-11-07T17:14:11.992Z,95249.00
2018-11-07T17:16:44.262Z,95248.00
2018-11-07T17:19:16.370Z,95248.00
2018-11-07T17:21:48.298Z,95256.00
2018-11-07T17:24:20.635Z,95259.00
2018-11-07T17:26:52.973Z,95263.00
2018-11-07T17:29:25.110Z,95261.00
2018-11-07T17:31:57.372Z,95264.00
2018-11-07T17:34:29.488Z,95262.00
2018-11-07T17:37:01.526Z,95268.00
2018-11-07T17:39:34.149Z,95272.00
2018-11-07T17:42:06.119Z,95274.00
2018-11-07T17:44:38.601Z,95272.00
2018-11-07T17:47:11.983Z,95271.00
2018-11-07T17:49:44.812Z,95275.00
2018-11-07T17:52:16.935Z,95272.00
2018-11-07T17:54:50.604Z,95273.00
2018-11-07T17:57:22.914Z,95269.00
2018-11-07T17:59:55.028Z,95279.00
2018-11-07T18:02:27.063Z,95281.00
2018-11-07T18:04:58.888Z,95278.00
2018-11-07T18:07:31.111Z,95283.00
2018-11-07T18:10:03.859Z,95283.00
2018-11-07T18:12:37.121Z,95292.00
2018-11-07T18:15:11.067Z,95292.00
2018-11-07T18:17:43.241Z,95289.00
2018-11-07T18:20:16.209Z,95286.00
2018-11-07T18:22:48.335Z,95288.00
2018-11-07T18:25:20.752Z,95290.00
2018-11-07T18:27:52.781Z,95292.00
2018-11-07T18:30:25.904Z,95293.00
2018-11-07T18:32:57.884Z,95294.00
2018-11-07T18:35:30.465Z,95297.00
2018-11-07T18:40:46.445Z,95295.00
2018-11-07T18:43:18.884Z,95297.00
2018-11-07T18:45:51.050Z,95294.00
2018-11-07T18:48:24.637Z,95303.00
2018-11-07T18:50:56.665Z,95309.00
2018-11-07T18:53:28.979Z,95305.00
2018-11-07T18:56:01.428Z,95316.00
2018-11-07T18:58:42.144Z,95309.00
2018-11-07T19:01:18.540Z,95316.00
2018-11-07T19:03:50.768Z,95318.00
2018-11-07T19:06:23.716Z,95315.00
2018-11-07T19:08:56.556Z,95318.00
2018-11-07T19:11:28.718Z,95322.00
2018-11-07T19:14:01.284Z,95326.00
2018-11-07T19:16:34.067Z,95329.00
2018-11-07T19:19:06.742Z,95328.00
2018-11-07T19:21:38.837Z,95336.00
2018-11-07T19:24:11.833Z,95335.00
2018-11-07T19:26:44.448Z,95339.00
2018-11-07T19:29:17.695Z,95338.00
2018-11-07T19:31:50.173Z,95339.00
2018-11-07T19:34:22.215Z,95339.00
2018-11-07T19:36:54.716Z,95338.00
2018-11-07T19:39:29.554Z,95340.00
2018-11-07T19:42:02.080Z,95340.00
2018-11-07T19:44:37.114Z,95344.00
2018-11-07T19:47:10.625Z,95341.00
2018-11-07T19:49:43.123Z,95341.00
2018-11-07T19:52:25.766Z,95339.00
2018-11-07T19:55:17.796Z,95336.00
2018-11-07T19:58:04.444Z,95333.00
2018-11-07T20:00:36.618Z,95330.00
2018-11-07T20:03:09.641Z,95336.00
2018-11-07T20:05:43.422Z,95340.00
2018-11-07T20:08:15.860Z,95336.00
2018-11-07T20:10:48.839Z,95335.00
2018-11-07T20:13:21.337Z,95331.00
2018-11-07T20:15:53.613Z,95332.00
2018-11-07T20:18:25.942Z,95329.00
2018-11-07T20:20:58.737Z,95334.00
2018-11-07T20:23:31.023Z,95338.00
2018-11-07T20:26:03.546Z,95334.00
2018-11-07T20:29:06.185Z,95336.00
2018-11-07T20:31:59.692Z,95339.00
2018-11-07T20:34:35.005Z,95337.00
2018-11-07T20:37:08.374Z,95347.00
2018-11-07T20:42:49.721Z,95349.00
2018-11-07T20:45:23.651Z,95351.00
2018-11-07T20:47:55.902Z,95345.00
2018-11-07T20:50:28.978Z,95347.00
2018-11-07T20:53:02.118Z,95342.00
2018-11-07T20:55:35.570Z,95345.00
2018-11-07T20:58:11.534Z,95340.00
2018-11-07T21:00:43.737Z,95340.00
2018-11-07T21:03:15.909Z,95342.00
2018-11-07T21:05:48.093Z,95340.00
2018-11-07T21:08:20.878Z,95340.00
2018-11-07T21:10:53.012Z,95346.00
2018-11-07T21:13:25.624Z,95344.00
2018-11-07T21:15:58.496Z,95352.00
2018-11-07T21:18:30.654Z,95340.00
2018-11-07T21:21:02.766Z,95349.00
2018-11-07T21:23:36.640Z,95345.00
2018-11-07T21:26:08.775Z,95344.00
2018-11-07T21:28:40.730Z,95346.00
2018-11-07T21:31:12.743Z,95344.00
2018-11-07T21:33:46.766Z,95349.00
2018-11-07T21:36:18.667Z,95344.00
2018-11-07T21:38:50.776Z,95344.00
2018-11-07T21:41:22.578Z,95340.00
2018-11-07T21:43:54.825Z,95344.00
2018-11-07T21:46:26.997Z,95344.00
2018-11-07T21:48:59.091Z,95339.00
2018-11-07T21:51:30.887Z,95344.00
2018-11-07T21:54:02.975Z,95339.00
2018-11-07T21:56:35.977Z,95342.00
2018-11-07T21:59:09.265Z,95333.00
2018-11-07T22:01:41.679Z,95342.00
2018-11-07T22:04:14.426Z,95346.00
2018-11-07T22:06:46.936Z,95345.00
2018-11-07T22:09:19.199Z,95340.00
2018-11-07T22:11:51.405Z,95342.00
2018-11-07T22:14:23.803Z,95336.00
2018-11-07T22:16:55.815Z,95337.00
2018-11-07T22:19:27.731Z,95336.00
2018-11-07T22:21:59.794Z,95340.00
2018-11-07T22:24:31.820Z,95331.00
2018-11-07T22:27:03.802Z,95336.00
2018-11-07T22:29:36.288Z,95331.00
2018-11-07T22:32:08.232Z,95341.00
2018-11-07T22:34:41.180Z,95338.00
2018-11-07T22:37:13.183Z,95335.00
2018-11-07T22:39:45.146Z,95333.00
2018-11-07T22:42:17.370Z,95329.00
2018-11-07T22:44:50.132Z,95330.00
2018-11-07T22:47:22.591Z,95328.00
2018-11-07T22:49:54.736Z,95331.00
2018-11-07T22:52:27.428Z,95327.00
2018-11-07T22:54:59.684Z,95327.00
2018-11-07T22:57:31.602Z,95320.00
2018-11-07T23:00:03.566Z,95327.00
2018-11-07T23:02:35.803Z,95326.00
2018-11-07T23:05:08.372Z,95326.00
2018-11-07T23:07:40.366Z,95319.00
2018-11-07T23:10:12.850Z,95320.00
2018-11-07T23:12:45.182Z,95316.00
2018-11-07T23:15:21.979Z,95315.00
2018-11-07T23:17:54.464Z,95320.00
2018-11-07T23:20:26.590Z,95318.00
2018-11-07T23:22:59.367Z,95318.00
2018-11-07T23:25:32.130Z,95322.00
2018-11-07T23:28:04.205Z,95316.00
2018-11-07T23:30:36.723Z,95315.00
2018-11-07T23:33:08.753Z,95306.00
2018-11-07T23:35:40.798Z,95310.00
2018-11-07T23:38:12.727Z,95301.00
2018-11-07T23:40:46.127Z,95303.00
2018-11-07T23:43:18.104Z,95304.00
2018-11-07T23:45:51.056Z,95299.00
2018-11-07T23:48:22.798Z,95308.00
2018-11-07T23:50:54.740Z,95310.00
2018-11-07T23:53:26.575Z,95309.00
2018-11-07T23:55:58.513Z,95304.00
2018-11-07T23:58:30.611Z,95302.00
